Terminal Aerodrome Forecast
Issued by NWS Twin Cities, MN

Home | Current Version | Previous Version | Text Only | Print | Product List | Glossary Off
Versions: 1 2 3 4 5 6 7 8 9 10 11 12 13 14

000
FTUS43 KMPX 272338
TAFEAU
TAF
KEAU 272338Z 2800/2824 22007KT P6SM SKC
     FM280300 21004KT P6SM SKC
     FM280900 19002KT P6SM SKC
     FM282300 17009KT P6SM SCT040 BKN070=

USA.gov is the U.S. government's official web portal to all federal, state and local government web resources and services.